sensor_id;sensor_type;location;lat;lon;timestamp;P1;durP1;ratioP1;P2;durP2;ratioP2
62894;SDS011;49204;44.916;37.998;2023-03-08T00:01:21;6.08;;;2.12;;
62894;SDS011;49204;44.916;37.998;2023-03-08T00:03:51;2.20;;;1.07;;
62894;SDS011;49204;44.916;37.998;2023-03-08T00:06:22;4.70;;;1.37;;
62894;SDS011;49204;44.916;37.998;2023-03-08T00:08:56;3.72;;;1.05;;
62894;SDS011;49204;44.916;37.998;2023-03-08T00:11:26;2.08;;;1.02;;
62894;SDS011;49204;44.916;37.998;2023-03-08T00:13:55;5.58;;;2.52;;
62894;SDS011;49204;44.916;37.998;2023-03-08T00:16:25;4.75;;;1.67;;
62894;SDS011;49204;44.916;37.998;2023-03-08T00:18:53;3.72;;;1.57;;
62894;SDS011;49204;44.916;37.998;2023-03-08T00:21:22;1.65;;;1.05;;
62894;SDS011;49204;44.916;37.998;2023-03-08T00:23:52;4.53;;;1.37;;
62894;SDS011;49204;44.916;37.998;2023-03-08T00:26:21;8.65;;;2.02;;
62894;SDS011;49204;44.916;37.998;2023-03-08T00:28:50;2.10;;;1.12;;
62894;SDS011;49204;44.916;37.998;2023-03-08T00:31:19;3.45;;;1.32;;
62894;SDS011;49204;44.916;37.998;2023-03-08T00:33:50;2.75;;;1.30;;
62894;SDS011;49204;44.916;37.998;2023-03-08T00:36:21;3.00;;;1.25;;
62894;SDS011;49204;44.916;37.998;2023-03-08T00:38:50;2.67;;;1.30;;
62894;SDS011;49204;44.916;37.998;2023-03-08T00:41:18;3.45;;;1.60;;
62894;SDS011;49204;44.916;37.998;2023-03-08T00:43:47;2.50;;;1.20;;
62894;SDS011;49204;44.916;37.998;2023-03-08T00:46:16;2.22;;;1.20;;
62894;SDS011;49204;44.916;37.998;2023-03-08T00:48:45;1.52;;;1.32;;
62894;SDS011;49204;44.916;37.998;2023-03-08T00:51:15;5.28;;;1.62;;
62894;SDS011;49204;44.916;37.998;2023-03-08T00:53:46;2.65;;;1.10;;
62894;SDS011;49204;44.916;37.998;2023-03-08T00:56:15;5.15;;;1.27;;
62894;SDS011;49204;44.916;37.998;2023-03-08T00:58:44;4.67;;;1.70;;
62894;SDS011;49204;44.916;37.998;2023-03-08T01:01:14;2.60;;;1.22;;
62894;SDS011;49204;44.916;37.998;2023-03-08T01:03:46;4.45;;;1.17;;
62894;SDS011;49204;44.916;37.998;2023-03-08T01:06:15;2.25;;;1.00;;
62894;SDS011;49204;44.916;37.998;2023-03-08T01:08:43;2.55;;;1.10;;
62894;SDS011;49204;44.916;37.998;2023-03-08T01:11:19;2.75;;;1.22;;
62894;SDS011;49204;44.916;37.998;2023-03-08T01:13:49;2.17;;;1.15;;
62894;SDS011;49204;44.916;37.998;2023-03-08T01:16:23;2.72;;;1.20;;
62894;SDS011;49204;44.916;37.998;2023-03-08T01:18:53;2.05;;;1.00;;
62894;SDS011;49204;44.916;37.998;2023-03-08T01:21:23;2.90;;;1.25;;
62894;SDS011;49204;44.916;37.998;2023-03-08T01:23:53;2.98;;;1.60;;
62894;SDS011;49204;44.916;37.998;2023-03-08T01:26:22;3.20;;;1.22;;
62894;SDS011;49204;44.916;37.998;2023-03-08T01:28:54;3.10;;;1.30;;
62894;SDS011;49204;44.916;37.998;2023-03-08T01:31:25;2.27;;;1.20;;
62894;SDS011;49204;44.916;37.998;2023-03-08T01:33:57;3.30;;;1.12;;
62894;SDS011;49204;44.916;37.998;2023-03-08T01:36:26;2.67;;;1.07;;
62894;SDS011;49204;44.916;37.998;2023-03-08T01:38:58;3.15;;;1.35;;
62894;SDS011;49204;44.916;37.998;2023-03-08T01:41:28;3.33;;;1.80;;
62894;SDS011;49204;44.916;37.998;2023-03-08T01:43:58;5.05;;;1.77;;
62894;SDS011;49204;44.916;37.998;2023-03-08T01:46:28;4.20;;;1.70;;
62894;SDS011;49204;44.916;37.998;2023-03-08T01:49:22;3.87;;;1.57;;
62894;SDS011;49204;44.916;37.998;2023-03-08T01:52:05;3.83;;;1.70;;
62894;SDS011;49204;44.916;37.998;2023-03-08T01:54:40;4.50;;;2.37;;
62894;SDS011;49204;44.916;37.998;2023-03-08T01:57:19;3.35;;;1.62;;
62894;SDS011;49204;44.916;37.998;2023-03-08T01:59:52;8.33;;;2.40;;
62894;SDS011;49204;44.916;37.998;2023-03-08T02:02:25;5.50;;;2.10;;
62894;SDS011;49204;44.916;37.998;2023-03-08T02:04:58;6.70;;;1.60;;
62894;SDS011;49204;44.916;37.998;2023-03-08T02:07:28;2.72;;;1.22;;
62894;SDS011;49204;44.916;37.998;2023-03-08T02:09:57;5.70;;;1.37;;
62894;SDS011;49204;44.916;37.998;2023-03-08T02:12:25;2.98;;;1.60;;
62894;SDS011;49204;44.916;37.998;2023-03-08T02:14:55;4.20;;;1.95;;
62894;SDS011;49204;44.916;37.998;2023-03-08T02:17:25;4.78;;;1.65;;
62894;SDS011;49204;44.916;37.998;2023-03-08T02:19:59;4.70;;;1.95;;
62894;SDS011;49204;44.916;37.998;2023-03-08T02:22:28;4.60;;;1.70;;
62894;SDS011;49204;44.916;37.998;2023-03-08T02:24:57;2.22;;;1.20;;
62894;SDS011;49204;44.916;37.998;2023-03-08T02:27:25;3.30;;;1.50;;
62894;SDS011;49204;44.916;37.998;2023-03-08T02:29:55;4.00;;;1.77;;
62894;SDS011;49204;44.916;37.998;2023-03-08T02:32:23;3.80;;;1.52;;
62894;SDS011;49204;44.916;37.998;2023-03-08T02:34:52;2.35;;;1.17;;
62894;SDS011;49204;44.916;37.998;2023-03-08T02:37:20;3.95;;;1.77;;
62894;SDS011;49204;44.916;37.998;2023-03-08T02:39:49;3.35;;;1.80;;
62894;SDS011;49204;44.916;37.998;2023-03-08T02:42:18;3.80;;;1.85;;
62894;SDS011;49204;44.916;37.998;2023-03-08T02:44:46;6.53;;;2.55;;
62894;SDS011;49204;44.916;37.998;2023-03-08T02:47:15;4.53;;;1.50;;
62894;SDS011;49204;44.916;37.998;2023-03-08T02:49:46;2.95;;;1.55;;
62894;SDS011;49204;44.916;37.998;2023-03-08T02:52:15;5.05;;;2.70;;
62894;SDS011;49204;44.916;37.998;2023-03-08T02:54:44;3.25;;;1.80;;
62894;SDS011;49204;44.916;37.998;2023-03-08T02:57:12;2.50;;;1.42;;
62894;SDS011;49204;44.916;37.998;2023-03-08T02:59:42;3.92;;;1.95;;
62894;SDS011;49204;44.916;37.998;2023-03-08T03:02:11;3.85;;;2.00;;
62894;SDS011;49204;44.916;37.998;2023-03-08T03:04:39;6.33;;;2.10;;
62894;SDS011;49204;44.916;37.998;2023-03-08T03:07:08;5.15;;;1.65;;
62894;SDS011;49204;44.916;37.998;2023-03-08T03:09:37;4.67;;;1.70;;
62894;SDS011;49204;44.916;37.998;2023-03-08T03:12:06;6.62;;;1.98;;
62894;SDS011;49204;44.916;37.998;2023-03-08T03:14:36;4.55;;;1.30;;
62894;SDS011;49204;44.916;37.998;2023-03-08T03:17:05;5.00;;;2.02;;
62894;SDS011;49204;44.916;37.998;2023-03-08T03:19:33;6.85;;;1.87;;
62894;SDS011;49204;44.916;37.998;2023-03-08T03:22:04;4.15;;;2.05;;
62894;SDS011;49204;44.916;37.998;2023-03-08T03:24:32;3.85;;;1.90;;
62894;SDS011;49204;44.916;37.998;2023-03-08T03:27:01;5.40;;;2.33;;
62894;SDS011;49204;44.916;37.998;2023-03-08T03:29:32;8.13;;;2.77;;
62894;SDS011;49204;44.916;37.998;2023-03-08T03:32:02;5.92;;;2.25;;
62894;SDS011;49204;44.916;37.998;2023-03-08T03:34:32;8.45;;;2.60;;
62894;SDS011;49204;44.916;37.998;2023-03-08T03:37:01;4.87;;;2.12;;
62894;SDS011;49204;44.916;37.998;2023-03-08T03:39:30;4.70;;;2.15;;
62894;SDS011;49204;44.916;37.998;2023-03-08T03:42:05;8.38;;;1.98;;
62894;SDS011;49204;44.916;37.998;2023-03-08T03:44:36;8.15;;;2.65;;
62894;SDS011;49204;44.916;37.998;2023-03-08T03:47:06;9.25;;;2.33;;
62894;SDS011;49204;44.916;37.998;2023-03-08T03:49:35;6.28;;;2.42;;
62894;SDS011;49204;44.916;37.998;2023-03-08T03:52:03;4.62;;;1.75;;
62894;SDS011;49204;44.916;37.998;2023-03-08T03:54:37;7.45;;;2.35;;
62894;SDS011;49204;44.916;37.998;2023-03-08T03:57:06;2.80;;;1.57;;
62894;SDS011;49204;44.916;37.998;2023-03-08T03:59:37;3.95;;;1.85;;
62894;SDS011;49204;44.916;37.998;2023-03-08T04:02:06;6.50;;;2.62;;
62894;SDS011;49204;44.916;37.998;2023-03-08T04:04:42;7.65;;;1.75;;
62894;SDS011;49204;44.916;37.998;2023-03-08T04:07:11;5.53;;;1.70;;
62894;SDS011;49204;44.916;37.998;2023-03-08T04:09:42;4.65;;;1.70;;
62894;SDS011;49204;44.916;37.998;2023-03-08T04:12:12;8.45;;;1.98;;
62894;SDS011;49204;44.916;37.998;2023-03-08T04:14:42;6.72;;;1.90;;
62894;SDS011;49204;44.916;37.998;2023-03-08T04:17:12;4.33;;;1.95;;
62894;SDS011;49204;44.916;37.998;2023-03-08T04:19:42;4.95;;;1.60;;
62894;SDS011;49204;44.916;37.998;2023-03-08T04:22:11;3.20;;;1.60;;
62894;SDS011;49204;44.916;37.998;2023-03-08T04:24:41;3.55;;;1.95;;
62894;SDS011;49204;44.916;37.998;2023-03-08T04:27:11;3.83;;;1.80;;
62894;SDS011;49204;44.916;37.998;2023-03-08T04:29:40;3.40;;;1.55;;
62894;SDS011;49204;44.916;37.998;2023-03-08T04:32:09;2.67;;;1.20;;
62894;SDS011;49204;44.916;37.998;2023-03-08T04:34:39;3.87;;;2.00;;
62894;SDS011;49204;44.916;37.998;2023-03-08T04:37:14;3.47;;;1.67;;
62894;SDS011;49204;44.916;37.998;2023-03-08T04:39:40;4.90;;;1.95;;
62894;SDS011;49204;44.916;37.998;2023-03-08T04:42:09;7.37;;;1.60;;
62894;SDS011;49204;44.916;37.998;2023-03-08T04:44:38;6.08;;;1.90;;
62894;SDS011;49204;44.916;37.998;2023-03-08T04:47:06;3.02;;;1.70;;
62894;SDS011;49204;44.916;37.998;2023-03-08T04:49:37;3.52;;;1.30;;
62894;SDS011;49204;44.916;37.998;2023-03-08T04:52:06;6.80;;;1.80;;
62894;SDS011;49204;44.916;37.998;2023-03-08T04:54:36;5.78;;;2.05;;
62894;SDS011;49204;44.916;37.998;2023-03-08T04:57:06;7.58;;;2.30;;
62894;SDS011;49204;44.916;37.998;2023-03-08T04:59:35;7.22;;;2.37;;
62894;SDS011;49204;44.916;37.998;2023-03-08T05:02:04;4.92;;;2.87;;
62894;SDS011;49204;44.916;37.998;2023-03-08T05:04:34;6.40;;;3.12;;
62894;SDS011;49204;44.916;37.998;2023-03-08T05:07:02;6.25;;;3.02;;
62894;SDS011;49204;44.916;37.998;2023-03-08T05:09:33;4.33;;;1.77;;
62894;SDS011;49204;44.916;37.998;2023-03-08T05:12:02;5.03;;;1.85;;
62894;SDS011;49204;44.916;37.998;2023-03-08T05:14:32;6.30;;;2.52;;
62894;SDS011;49204;44.916;37.998;2023-03-08T05:17:01;6.47;;;2.00;;
62894;SDS011;49204;44.916;37.998;2023-03-08T05:19:31;4.35;;;1.80;;
62894;SDS011;49204;44.916;37.998;2023-03-08T05:22:00;8.60;;;2.27;;
62894;SDS011;49204;44.916;37.998;2023-03-08T05:24:31;7.37;;;2.47;;
62894;SDS011;49204;44.916;37.998;2023-03-08T05:27:01;6.28;;;2.05;;
62894;SDS011;49204;44.916;37.998;2023-03-08T05:29:30;6.42;;;2.52;;
62894;SDS011;49204;44.916;37.998;2023-03-08T05:32:00;10.63;;;2.77;;
62894;SDS011;49204;44.916;37.998;2023-03-08T05:34:30;4.87;;;2.22;;
62894;SDS011;49204;44.916;37.998;2023-03-08T05:36:59;5.80;;;2.33;;
62894;SDS011;49204;44.916;37.998;2023-03-08T05:39:29;6.45;;;1.82;;
62894;SDS011;49204;44.916;37.998;2023-03-08T05:41:59;2.00;;;1.25;;
62894;SDS011;49204;44.916;37.998;2023-03-08T05:44:30;4.30;;;1.40;;
62894;SDS011;49204;44.916;37.998;2023-03-08T05:46:58;5.72;;;1.80;;
62894;SDS011;49204;44.916;37.998;2023-03-08T05:49:27;4.87;;;1.77;;
62894;SDS011;49204;44.916;37.998;2023-03-08T05:51:56;4.83;;;1.80;;
62894;SDS011;49204;44.916;37.998;2023-03-08T05:54:26;4.08;;;1.98;;
62894;SDS011;49204;44.916;37.998;2023-03-08T05:56:56;5.10;;;2.25;;
62894;SDS011;49204;44.916;37.998;2023-03-08T05:59:25;3.95;;;1.70;;
62894;SDS011;49204;44.916;37.998;2023-03-08T06:01:56;2.95;;;1.57;;
62894;SDS011;49204;44.916;37.998;2023-03-08T06:04:32;3.60;;;1.80;;
62894;SDS011;49204;44.916;37.998;2023-03-08T06:07:01;3.30;;;1.25;;
62894;SDS011;49204;44.916;37.998;2023-03-08T06:09:31;4.10;;;1.55;;
62894;SDS011;49204;44.916;37.998;2023-03-08T06:12:00;2.40;;;1.35;;
62894;SDS011;49204;44.916;37.998;2023-03-08T06:14:29;2.87;;;1.27;;
62894;SDS011;49204;44.916;37.998;2023-03-08T06:16:58;3.00;;;1.30;;
62894;SDS011;49204;44.916;37.998;2023-03-08T06:19:28;3.17;;;1.27;;
62894;SDS011;49204;44.916;37.998;2023-03-08T06:21:57;2.70;;;1.12;;
62894;SDS011;49204;44.916;37.998;2023-03-08T06:24:26;3.70;;;1.90;;
62894;SDS011;49204;44.916;37.998;2023-03-08T06:26:56;8.30;;;1.02;;
62894;SDS011;49204;44.916;37.998;2023-03-08T06:29:25;2.30;;;1.22;;
62894;SDS011;49204;44.916;37.998;2023-03-08T06:31:54;1.90;;;1.10;;
62894;SDS011;49204;44.916;37.998;2023-03-08T06:34:24;3.90;;;1.77;;
62894;SDS011;49204;44.916;37.998;2023-03-08T06:36:54;5.37;;;1.42;;
62894;SDS011;49204;44.916;37.998;2023-03-08T06:39:24;1.80;;;1.10;;
62894;SDS011;49204;44.916;37.998;2023-03-08T06:41:55;2.98;;;1.65;;
62894;SDS011;49204;44.916;37.998;2023-03-08T06:44:24;1.85;;;1.15;;
62894;SDS011;49204;44.916;37.998;2023-03-08T06:46:53;2.08;;;1.17;;
62894;SDS011;49204;44.916;37.998;2023-03-08T06:49:23;2.22;;;1.20;;
62894;SDS011;49204;44.916;37.998;2023-03-08T06:51:52;6.33;;;1.30;;
62894;SDS011;49204;44.916;37.998;2023-03-08T06:54:21;1.70;;;0.85;;
62894;SDS011;49204;44.916;37.998;2023-03-08T06:56:50;2.77;;;1.37;;
62894;SDS011;49204;44.916;37.998;2023-03-08T06:59:19;10.93;;;1.52;;
62894;SDS011;49204;44.916;37.998;2023-03-08T07:01:48;2.37;;;1.20;;
62894;SDS011;49204;44.916;37.998;2023-03-08T07:04:16;7.60;;;1.37;;
62894;SDS011;49204;44.916;37.998;2023-03-08T07:06:45;1.80;;;1.20;;
62894;SDS011;49204;44.916;37.998;2023-03-08T07:09:13;1.70;;;1.00;;
62894;SDS011;49204;44.916;37.998;2023-03-08T07:11:42;3.02;;;1.00;;
62894;SDS011;49204;44.916;37.998;2023-03-08T07:14:11;4.58;;;1.10;;
62894;SDS011;49204;44.916;37.998;2023-03-08T07:16:39;4.60;;;1.17;;
62894;SDS011;49204;44.916;37.998;2023-03-08T07:19:08;2.12;;;0.98;;
62894;SDS011;49204;44.916;37.998;2023-03-08T07:21:36;1.20;;;0.90;;
62894;SDS011;49204;44.916;37.998;2023-03-08T07:24:05;3.30;;;1.20;;
62894;SDS011;49204;44.916;37.998;2023-03-08T07:26:34;2.72;;;0.90;;
62894;SDS011;49204;44.916;37.998;2023-03-08T07:29:03;1.70;;;0.90;;
62894;SDS011;49204;44.916;37.998;2023-03-08T07:31:32;3.35;;;0.98;;
62894;SDS011;49204;44.916;37.998;2023-03-08T07:34:02;3.85;;;1.10;;
62894;SDS011;49204;44.916;37.998;2023-03-08T07:36:31;1.00;;;0.90;;
62894;SDS011;49204;44.916;37.998;2023-03-08T07:39:00;1.67;;;1.02;;
62894;SDS011;49204;44.916;37.998;2023-03-08T07:41:28;2.05;;;1.12;;
62894;SDS011;49204;44.916;37.998;2023-03-08T07:43:58;2.65;;;0.95;;
62894;SDS011;49204;44.916;37.998;2023-03-08T07:46:28;3.12;;;0.90;;
62894;SDS011;49204;44.916;37.998;2023-03-08T07:48:56;1.57;;;0.78;;
62894;SDS011;49204;44.916;37.998;2023-03-08T07:51:25;3.25;;;0.75;;
62894;SDS011;49204;44.916;37.998;2023-03-08T07:53:54;2.72;;;1.07;;
62894;SDS011;49204;44.916;37.998;2023-03-08T07:56:22;2.50;;;0.80;;
62894;SDS011;49204;44.916;37.998;2023-03-08T07:58:51;0.75;;;0.75;;
62894;SDS011;49204;44.916;37.998;2023-03-08T08:01:21;1.52;;;0.70;;
62894;SDS011;49204;44.916;37.998;2023-03-08T08:03:50;1.87;;;0.98;;
62894;SDS011;49204;44.916;37.998;2023-03-08T08:06:18;4.42;;;1.22;;
62894;SDS011;49204;44.916;37.998;2023-03-08T08:08:47;2.80;;;1.10;;
62894;SDS011;49204;44.916;37.998;2023-03-08T08:11:16;2.15;;;1.05;;
62894;SDS011;49204;44.916;37.998;2023-03-08T08:13:48;1.47;;;0.80;;
62894;SDS011;49204;44.916;37.998;2023-03-08T08:16:17;0.82;;;0.80;;
62894;SDS011;49204;44.916;37.998;2023-03-08T08:18:47;4.60;;;1.05;;
62894;SDS011;49204;44.916;37.998;2023-03-08T08:21:17;2.33;;;1.00;;
62894;SDS011;49204;44.916;37.998;2023-03-08T08:23:46;1.85;;;1.00;;
62894;SDS011;49204;44.916;37.998;2023-03-08T08:26:16;0.95;;;0.70;;
62894;SDS011;49204;44.916;37.998;2023-03-08T08:28:48;1.22;;;0.62;;
62894;SDS011;49204;44.916;37.998;2023-03-08T08:31:20;2.85;;;1.00;;
62894;SDS011;49204;44.916;37.998;2023-03-08T08:33:49;1.32;;;0.72;;
62894;SDS011;49204;44.916;37.998;2023-03-08T08:36:19;2.05;;;0.82;;
62894;SDS011;49204;44.916;37.998;2023-03-08T08:38:48;5.00;;;0.93;;
62894;SDS011;49204;44.916;37.998;2023-03-08T08:41:18;1.50;;;0.82;;
62894;SDS011;49204;44.916;37.998;2023-03-08T08:43:48;1.27;;;0.88;;
62894;SDS011;49204;44.916;37.998;2023-03-08T08:46:17;1.92;;;0.90;;
62894;SDS011;49204;44.916;37.998;2023-03-08T08:48:47;1.10;;;0.75;;
62894;SDS011;49204;44.916;37.998;2023-03-08T08:51:15;1.65;;;1.00;;
62894;SDS011;49204;44.916;37.998;2023-03-08T08:53:44;0.88;;;0.70;;
62894;SDS011;49204;44.916;37.998;2023-03-08T08:56:14;1.60;;;1.20;;
62894;SDS011;49204;44.916;37.998;2023-03-08T08:58:45;0.90;;;0.70;;
62894;SDS011;49204;44.916;37.998;2023-03-08T09:01:15;1.42;;;0.90;;
62894;SDS011;49204;44.916;37.998;2023-03-08T09:03:46;2.33;;;0.90;;
62894;SDS011;49204;44.916;37.998;2023-03-08T09:06:16;0.95;;;0.75;;
62894;SDS011;49204;44.916;37.998;2023-03-08T09:08:50;1.02;;;0.80;;
62894;SDS011;49204;44.916;37.998;2023-03-08T09:11:20;0.85;;;0.60;;
62894;SDS011;49204;44.916;37.998;2023-03-08T09:13:49;2.75;;;1.05;;
62894;SDS011;49204;44.916;37.998;2023-03-08T09:16:29;1.72;;;0.93;;
62894;SDS011;49204;44.916;37.998;2023-03-08T09:19:00;2.60;;;1.00;;
62894;SDS011;49204;44.916;37.998;2023-03-08T09:21:30;2.52;;;0.80;;
62894;SDS011;49204;44.916;37.998;2023-03-08T09:24:01;2.67;;;1.22;;
62894;SDS011;49204;44.916;37.998;2023-03-08T09:26:31;2.92;;;1.17;;
62894;SDS011;49204;44.916;37.998;2023-03-08T09:29:01;1.30;;;0.80;;
62894;SDS011;49204;44.916;37.998;2023-03-08T09:31:31;4.25;;;0.70;;
62894;SDS011;49204;44.916;37.998;2023-03-08T09:34:02;3.30;;;0.90;;
62894;SDS011;49204;44.916;37.998;2023-03-08T09:36:33;2.42;;;1.05;;
62894;SDS011;49204;44.916;37.998;2023-03-08T09:39:05;0.95;;;0.75;;
62894;SDS011;49204;44.916;37.998;2023-03-08T09:47:15;4.65;;;0.90;;
62894;SDS011;49204;44.916;37.998;2023-03-08T09:49:45;2.55;;;0.80;;
62894;SDS011;49204;44.916;37.998;2023-03-08T09:52:27;4.25;;;0.98;;
62894;SDS011;49204;44.916;37.998;2023-03-08T09:55:15;5.35;;;0.98;;
62894;SDS011;49204;44.916;37.998;2023-03-08T09:57:51;3.93;;;1.03;;
62894;SDS011;49204;44.916;37.998;2023-03-08T10:00:32;1.75;;;1.22;;
62894;SDS011;49204;44.916;37.998;2023-03-08T10:03:07;3.45;;;0.70;;
62894;SDS011;49204;44.916;37.998;2023-03-08T10:05:42;4.40;;;0.90;;
62894;SDS011;49204;44.916;37.998;2023-03-08T10:13:32;2.35;;;1.07;;
62894;SDS011;49204;44.916;37.998;2023-03-08T10:16:09;2.17;;;1.00;;
62894;SDS011;49204;44.916;37.998;2023-03-08T10:18:54;1.40;;;0.70;;
62894;SDS011;49204;44.916;37.998;2023-03-08T10:21:24;1.50;;;0.95;;
62894;SDS011;49204;44.916;37.998;2023-03-08T10:26:29;1.25;;;0.65;;
62894;SDS011;49204;44.916;37.998;2023-03-08T10:28:58;1.50;;;0.80;;
62894;SDS011;49204;44.916;37.998;2023-03-08T10:31:27;2.15;;;0.70;;
62894;SDS011;49204;44.916;37.998;2023-03-08T10:34:05;2.37;;;0.70;;
62894;SDS011;49204;44.916;37.998;2023-03-08T10:36:49;1.10;;;0.72;;
62894;SDS011;49204;44.916;37.998;2023-03-08T10:39:21;2.10;;;0.93;;
62894;SDS011;49204;44.916;37.998;2023-03-08T10:41:51;2.02;;;0.90;;
62894;SDS011;49204;44.916;37.998;2023-03-08T10:44:35;1.98;;;0.80;;
62894;SDS011;49204;44.916;37.998;2023-03-08T10:50:04;3.33;;;0.90;;
62894;SDS011;49204;44.916;37.998;2023-03-08T10:52:45;1.85;;;0.70;;
62894;SDS011;49204;44.916;37.998;2023-03-08T10:55:16;5.10;;;0.88;;
62894;SDS011;49204;44.916;37.998;2023-03-08T10:57:56;1.87;;;0.60;;
62894;SDS011;49204;44.916;37.998;2023-03-08T11:00:32;1.90;;;0.57;;
62894;SDS011;49204;44.916;37.998;2023-03-08T11:05:39;1.67;;;0.90;;
62894;SDS011;49204;44.916;37.998;2023-03-08T11:08:15;0.95;;;0.62;;
62894;SDS011;49204;44.916;37.998;2023-03-08T11:10:46;1.25;;;0.70;;
62894;SDS011;49204;44.916;37.998;2023-03-08T11:13:24;1.70;;;0.70;;
62894;SDS011;49204;44.916;37.998;2023-03-08T11:16:10;3.33;;;1.30;;
62894;SDS011;49204;44.916;37.998;2023-03-08T11:24:13;2.58;;;0.80;;
62894;SDS011;49204;44.916;37.998;2023-03-08T11:35:10;2.25;;;0.98;;
62894;SDS011;49204;44.916;37.998;2023-03-08T11:43:21;2.50;;;1.10;;
62894;SDS011;49204;44.916;37.998;2023-03-08T11:46:00;1.55;;;0.62;;
62894;SDS011;49204;44.916;37.998;2023-03-08T11:48:41;2.22;;;0.78;;
62894;SDS011;49204;44.916;37.998;2023-03-08T11:51:29;0.60;;;0.60;;
62894;SDS011;49204;44.916;37.998;2023-03-08T11:57:03;2.02;;;1.02;;
62894;SDS011;49204;44.916;37.998;2023-03-08T11:59:39;2.67;;;0.90;;
62894;SDS011;49204;44.916;37.998;2023-03-08T12:02:19;1.25;;;0.80;;
62894;SDS011;49204;44.916;37.998;2023-03-08T12:07:46;1.37;;;0.70;;
62894;SDS011;49204;44.916;37.998;2023-03-08T12:15:48;1.45;;;0.95;;
62894;SDS011;49204;44.916;37.998;2023-03-08T12:18:28;2.35;;;1.00;;
62894;SDS011;49204;44.916;37.998;2023-03-08T12:21:12;0.82;;;0.70;;
62894;SDS011;49204;44.916;37.998;2023-03-08T12:23:47;4.03;;;0.70;;
62894;SDS011;49204;44.916;37.998;2023-03-08T12:26:19;1.65;;;0.93;;
62894;SDS011;49204;44.916;37.998;2023-03-08T12:28:53;2.45;;;1.40;;
62894;SDS011;49204;44.916;37.998;2023-03-08T12:31:32;2.55;;;1.00;;
62894;SDS011;49204;44.916;37.998;2023-03-08T12:33:58;2.33;;;1.35;;
62894;SDS011;49204;44.916;37.998;2023-03-08T12:36:41;2.90;;;1.00;;
62894;SDS011;49204;44.916;37.998;2023-03-08T12:39:30;3.17;;;1.42;;
62894;SDS011;49204;44.916;37.998;2023-03-08T12:44:39;2.27;;;1.10;;
62894;SDS011;49204;44.916;37.998;2023-03-08T12:49:43;3.47;;;1.40;;
62894;SDS011;49204;44.916;37.998;2023-03-08T13:00:25;2.45;;;0.93;;
62894;SDS011;49204;44.916;37.998;2023-03-08T13:03:04;6.53;;;1.30;;
62894;SDS011;49204;44.916;37.998;2023-03-08T13:05:43;3.35;;;1.50;;
62894;SDS011;49204;44.916;37.998;2023-03-08T13:13:22;2.95;;;1.45;;
62894;SDS011;49204;44.916;37.998;2023-03-08T13:16:06;3.90;;;1.10;;
62894;SDS011;49204;44.916;37.998;2023-03-08T13:18:49;2.08;;;1.10;;
62894;SDS011;49204;44.916;37.998;2023-03-08T13:21:23;2.27;;;1.10;;
62894;SDS011;49204;44.916;37.998;2023-03-08T13:23:56;1.80;;;1.00;;
62894;SDS011;49204;44.916;37.998;2023-03-08T13:26:44;1.27;;;0.90;;
62894;SDS011;49204;44.916;37.998;2023-03-08T13:29:31;2.15;;;1.32;;
62894;SDS011;49204;44.916;37.998;2023-03-08T13:32:09;1.33;;;1.03;;
62894;SDS011;49204;44.916;37.998;2023-03-08T13:34:44;3.37;;;1.20;;
62894;SDS011;49204;44.916;37.998;2023-03-08T13:37:21;1.35;;;0.98;;
62894;SDS011;49204;44.916;37.998;2023-03-08T13:39:52;3.60;;;1.10;;
62894;SDS011;49204;44.916;37.998;2023-03-08T13:42:22;2.35;;;1.30;;
62894;SDS011;49204;44.916;37.998;2023-03-08T13:45:04;2.77;;;1.00;;
62894;SDS011;49204;44.916;37.998;2023-03-08T13:47:37;1.50;;;0.80;;
62894;SDS011;49204;44.916;37.998;2023-03-08T13:50:06;2.00;;;1.12;;
62894;SDS011;49204;44.916;37.998;2023-03-08T13:52:37;2.83;;;0.90;;
62894;SDS011;49204;44.916;37.998;2023-03-08T13:55:06;2.70;;;1.02;;
62894;SDS011;49204;44.916;37.998;2023-03-08T13:57:37;3.67;;;1.35;;
62894;SDS011;49204;44.916;37.998;2023-03-08T14:00:28;1.27;;;0.90;;
62894;SDS011;49204;44.916;37.998;2023-03-08T14:02:55;2.75;;;1.15;;
62894;SDS011;49204;44.916;37.998;2023-03-08T14:05:28;4.25;;;1.10;;
62894;SDS011;49204;44.916;37.998;2023-03-08T14:08:03;2.45;;;1.37;;
62894;SDS011;49204;44.916;37.998;2023-03-08T14:10:37;3.15;;;1.67;;
62894;SDS011;49204;44.916;37.998;2023-03-08T14:13:13;1.57;;;0.90;;
62894;SDS011;49204;44.916;37.998;2023-03-08T14:15:48;1.98;;;0.88;;
62894;SDS011;49204;44.916;37.998;2023-03-08T14:18:20;2.47;;;1.00;;
62894;SDS011;49204;44.916;37.998;2023-03-08T14:21:04;1.77;;;1.10;;
62894;SDS011;49204;44.916;37.998;2023-03-08T14:23:51;1.57;;;0.70;;
62894;SDS011;49204;44.916;37.998;2023-03-08T14:26:26;2.00;;;1.00;;
62894;SDS011;49204;44.916;37.998;2023-03-08T14:29:12;3.90;;;1.25;;
62894;SDS011;49204;44.916;37.998;2023-03-08T14:32:02;3.35;;;1.27;;
62894;SDS011;49204;44.916;37.998;2023-03-08T14:37:04;4.97;;;1.15;;
62894;SDS011;49204;44.916;37.998;2023-03-08T14:39:41;6.33;;;1.47;;
62894;SDS011;49204;44.916;37.998;2023-03-08T14:42:23;1.37;;;1.22;;
62894;SDS011;49204;44.916;37.998;2023-03-08T14:44:59;2.00;;;0.90;;
62894;SDS011;49204;44.916;37.998;2023-03-08T14:47:30;7.30;;;1.27;;
62894;SDS011;49204;44.916;37.998;2023-03-08T14:52:42;2.72;;;1.12;;
62894;SDS011;49204;44.916;37.998;2023-03-08T14:55:21;3.33;;;0.90;;
62894;SDS011;49204;44.916;37.998;2023-03-08T14:58:01;2.75;;;1.37;;
62894;SDS011;49204;44.916;37.998;2023-03-08T15:00:25;2.02;;;1.30;;
62894;SDS011;49204;44.916;37.998;2023-03-08T15:02:56;2.02;;;1.15;;
62894;SDS011;49204;44.916;37.998;2023-03-08T15:05:26;6.83;;;1.62;;
62894;SDS011;49204;44.916;37.998;2023-03-08T15:07:56;3.62;;;1.80;;
62894;SDS011;49204;44.916;37.998;2023-03-08T15:10:28;4.15;;;1.75;;
62894;SDS011;49204;44.916;37.998;2023-03-08T15:12:58;5.50;;;1.85;;
62894;SDS011;49204;44.916;37.998;2023-03-08T15:15:27;9.38;;;1.90;;
62894;SDS011;49204;44.916;37.998;2023-03-08T15:17:56;3.25;;;1.35;;
62894;SDS011;49204;44.916;37.998;2023-03-08T15:20:24;4.10;;;1.50;;
62894;SDS011;49204;44.916;37.998;2023-03-08T15:22:55;3.92;;;1.50;;
62894;SDS011;49204;44.916;37.998;2023-03-08T15:25:29;4.58;;;1.60;;
62894;SDS011;49204;44.916;37.998;2023-03-08T15:27:59;8.30;;;2.55;;
62894;SDS011;49204;44.916;37.998;2023-03-08T15:30:29;6.30;;;1.60;;
62894;SDS011;49204;44.916;37.998;2023-03-08T15:32:58;7.30;;;1.87;;
62894;SDS011;49204;44.916;37.998;2023-03-08T15:35:28;6.92;;;2.00;;
62894;SDS011;49204;44.916;37.998;2023-03-08T15:37:57;2.47;;;1.35;;
62894;SDS011;49204;44.916;37.998;2023-03-08T15:40:26;5.42;;;2.20;;
62894;SDS011;49204;44.916;37.998;2023-03-08T15:42:56;8.45;;;2.87;;
62894;SDS011;49204;44.916;37.998;2023-03-08T15:45:25;11.10;;;3.90;;
62894;SDS011;49204;44.916;37.998;2023-03-08T15:47:58;5.10;;;2.12;;
62894;SDS011;49204;44.916;37.998;2023-03-08T15:50:28;5.37;;;1.92;;
62894;SDS011;49204;44.916;37.998;2023-03-08T15:52:58;6.60;;;2.80;;
62894;SDS011;49204;44.916;37.998;2023-03-08T15:55:27;6.03;;;2.25;;
62894;SDS011;49204;44.916;37.998;2023-03-08T15:57:57;5.12;;;1.98;;
62894;SDS011;49204;44.916;37.998;2023-03-08T16:00:26;10.70;;;2.80;;
62894;SDS011;49204;44.916;37.998;2023-03-08T16:02:55;10.50;;;3.30;;
62894;SDS011;49204;44.916;37.998;2023-03-08T16:05:24;9.05;;;2.98;;
62894;SDS011;49204;44.916;37.998;2023-03-08T16:07:54;9.13;;;3.37;;
62894;SDS011;49204;44.916;37.998;2023-03-08T16:10:29;9.73;;;2.92;;
62894;SDS011;49204;44.916;37.998;2023-03-08T16:13:01;5.83;;;2.60;;